createdAt,value
2019-02-27T00:01:19.772Z,20.93
2019-02-27T00:03:49.496Z,21.87
2019-02-27T00:06:19.154Z,20.53
2019-02-27T00:08:48.890Z,23.27
2019-02-27T00:11:18.546Z,22.23
2019-02-27T00:13:48.203Z,20.37
2019-02-27T00:16:17.790Z,21.70
2019-02-27T00:18:47.492Z,21.07
2019-02-27T00:21:17.128Z,21.30
2019-02-27T00:23:46.701Z,20.97
2019-02-27T00:26:16.344Z,21.03
2019-02-27T00:28:45.872Z,21.33
2019-02-27T00:31:15.459Z,20.23
2019-02-27T00:33:45.080Z,20.97
2019-02-27T00:36:14.714Z,18.10
2019-02-27T00:38:44.680Z,20.17
2019-02-27T00:41:14.390Z,20.70
2019-02-27T00:43:44.061Z,20.77
2019-02-27T00:46:13.998Z,21.97
2019-02-27T00:48:43.740Z,21.27
2019-02-27T00:51:13.283Z,20.37
2019-02-27T00:53:42.853Z,21.30
2019-02-27T00:56:12.918Z,20.80
2019-02-27T00:58:42.570Z,19.30
2019-02-27T01:01:12.645Z,20.73
2019-02-27T01:03:43.000Z,21.07
2019-02-27T01:06:14.682Z,20.80
2019-02-27T01:08:44.413Z,20.13
2019-02-27T01:11:18.200Z,21.73
2019-02-27T01:13:45.268Z,23.00
2019-02-27T01:16:17.249Z,20.33
2019-02-27T01:18:46.264Z,20.20
2019-02-27T01:21:18.951Z,19.40
2019-02-27T01:23:47.040Z,20.43
2019-02-27T01:26:16.779Z,20.00
2019-02-27T01:28:46.420Z,18.43
2019-02-27T01:31:16.052Z,19.73
2019-02-27T01:33:45.688Z,20.47
2019-02-27T01:36:15.381Z,20.37
2019-02-27T01:38:44.987Z,21.50
2019-02-27T01:41:14.663Z,20.37
2019-02-27T01:43:44.268Z,19.50
2019-02-27T01:46:13.817Z,18.90
2019-02-27T01:48:43.884Z,20.00
2019-02-27T01:51:13.677Z,18.90
2019-02-27T01:53:43.324Z,18.57
2019-02-27T01:56:12.993Z,18.07
2019-02-27T01:58:44.236Z,20.20
2019-02-27T02:01:14.049Z,18.73
2019-02-27T02:03:47.251Z,18.97
2019-02-27T02:06:15.079Z,19.93
2019-02-27T02:08:48.039Z,19.93
2019-02-27T02:11:15.969Z,17.77
2019-02-27T02:13:54.141Z,18.57
2019-02-27T02:16:35.990Z,19.73
2019-02-27T02:19:28.015Z,19.97
2019-02-27T02:22:00.642Z,21.63
2019-02-27T02:24:45.206Z,20.07
2019-02-27T02:27:32.945Z,21.27
2019-02-27T02:30:20.419Z,19.10
2019-02-27T02:33:01.964Z,19.67
2019-02-27T02:35:49.580Z,20.40
2019-02-27T02:38:41.589Z,22.13
2019-02-27T02:41:46.574Z,21.43
2019-02-27T02:44:20.637Z,22.67
2019-02-27T02:47:04.974Z,21.70
2019-02-27T02:49:42.654Z,22.20
2019-02-27T02:52:31.027Z,22.00
2019-02-27T02:55:13.448Z,23.80
2019-02-27T02:58:11.391Z,23.17
2019-02-27T03:00:51.420Z,22.07
2019-02-27T03:03:35.802Z,20.87
2019-02-27T03:06:22.280Z,20.37
2019-02-27T03:09:14.565Z,20.67
2019-02-27T03:11:47.187Z,21.43
2019-02-27T03:14:54.351Z,20.73
2019-02-27T03:17:35.957Z,21.00
2019-02-27T03:20:26.740Z,19.90
2019-02-27T03:23:16.495Z,20.40
2019-02-27T03:26:07.091Z,19.93
2019-02-27T03:28:54.826Z,19.97
2019-02-27T03:31:27.425Z,20.90
2019-02-27T03:34:14.899Z,20.73
2019-02-27T03:37:02.876Z,20.33
2019-02-27T03:39:50.326Z,21.10
2019-02-27T03:42:50.251Z,20.30
2019-02-27T03:45:40.890Z,21.77
2019-02-27T03:48:27.580Z,19.90
2019-02-27T03:51:14.834Z,20.37
2019-02-27T03:53:50.149Z,19.90
2019-02-27T03:56:48.620Z,19.37
2019-02-27T03:59:33.214Z,20.20
2019-02-27T04:02:28.508Z,18.97
2019-02-27T04:05:29.774Z,19.90
2019-02-27T04:08:29.103Z,19.17
2019-02-27T04:10:58.796Z,20.20
2019-02-27T04:13:28.445Z,19.67
2019-02-27T04:15:58.053Z,20.07
2019-02-27T04:18:28.379Z,19.53
2019-02-27T04:20:58.024Z,19.40
2019-02-27T04:23:27.596Z,19.03
2019-02-27T04:25:57.101Z,20.13
2019-02-27T04:28:29.604Z,20.93
2019-02-27T04:30:57.913Z,20.90
2019-02-27T04:33:27.494Z,20.93
2019-02-27T04:35:57.042Z,20.43
2019-02-27T04:38:27.681Z,20.00
2019-02-27T04:40:57.824Z,20.53
2019-02-27T04:43:31.899Z,20.20
2019-02-27T04:45:58.614Z,19.47
2019-02-27T04:48:30.061Z,18.73
2019-02-27T04:50:59.501Z,19.27
2019-02-27T04:53:31.930Z,19.27
2019-02-27T04:56:00.385Z,20.27
2019-02-27T04:58:31.356Z,18.90
2019-02-27T05:01:01.132Z,20.13
2019-02-27T05:03:30.729Z,20.83
2019-02-27T05:06:00.273Z,22.13
2019-02-27T05:08:29.964Z,20.57
2019-02-27T05:10:59.633Z,20.93
2019-02-27T05:13:29.185Z,21.50
2019-02-27T05:15:58.769Z,20.63
2019-02-27T05:18:29.478Z,20.93
2019-02-27T05:20:59.635Z,20.63
2019-02-27T05:23:30.889Z,21.27
2019-02-27T05:26:00.429Z,21.20
2019-02-27T05:28:32.120Z,20.53
2019-02-27T05:31:01.064Z,21.13
2019-02-27T05:33:35.674Z,20.20
2019-02-27T05:36:01.906Z,21.17
2019-02-27T05:38:31.430Z,20.67
2019-02-27T05:41:00.945Z,19.87
2019-02-27T05:43:30.566Z,22.80
2019-02-27T05:46:02.911Z,21.03
2019-02-27T05:48:31.505Z,21.80
2019-02-27T05:51:01.089Z,20.87
2019-02-27T05:53:30.677Z,20.30
2019-02-27T05:56:00.269Z,21.13
2019-02-27T05:58:29.821Z,21.87
2019-02-27T06:01:02.098Z,22.13
2019-02-27T06:03:30.706Z,22.27
2019-02-27T06:06:00.273Z,21.90
2019-02-27T06:08:29.830Z,21.43
2019-02-27T06:10:59.398Z,20.60
2019-02-27T06:13:28.906Z,21.43
2019-02-27T06:16:02.744Z,21.77
2019-02-27T06:18:29.708Z,19.17
2019-02-27T06:20:59.228Z,20.60
2019-02-27T06:23:28.855Z,21.33
2019-02-27T06:25:59.470Z,21.37
2019-02-27T06:28:29.662Z,21.33
2019-02-27T06:30:59.144Z,20.67
2019-02-27T06:33:28.898Z,23.17
2019-02-27T06:35:58.380Z,22.17
2019-02-27T06:38:27.909Z,22.37
2019-02-27T06:40:59.333Z,21.23
2019-02-27T06:43:28.821Z,20.77
2019-02-27T06:45:58.410Z,21.23
2019-02-27T06:48:27.943Z,21.77
2019-02-27T06:50:58.338Z,23.50
2019-02-27T06:53:28.854Z,21.33
2019-02-27T06:56:02.918Z,23.40
2019-02-27T06:58:29.533Z,23.37
2019-02-27T07:00:59.185Z,23.30
2019-02-27T07:03:29.553Z,23.37
2019-02-27T07:06:00.027Z,24.27
2019-02-27T07:08:29.593Z,25.40
2019-02-27T07:11:10.352Z,25.10
2019-02-27T07:13:30.287Z,24.10
2019-02-27T07:16:00.020Z,24.87
2019-02-27T07:18:29.551Z,26.30
2019-02-27T07:20:59.291Z,25.00
2019-02-27T07:23:28.959Z,25.70
2019-02-27T07:25:58.478Z,24.23
2019-02-27T07:28:27.994Z,23.13
2019-02-27T07:30:57.689Z,22.10
2019-02-27T07:33:27.284Z,20.90
2019-02-27T07:35:56.924Z,20.70
2019-02-27T07:38:26.504Z,19.93
2019-02-27T07:40:56.115Z,19.13
2019-02-27T07:43:25.623Z,19.10
2019-02-27T07:45:55.266Z,18.37
2019-02-27T07:48:25.024Z,18.57
2019-02-27T07:50:54.639Z,17.43
2019-02-27T07:53:25.627Z,17.83
2019-02-27T07:55:55.265Z,17.23
2019-02-27T07:58:24.888Z,18.53
2019-02-27T08:00:54.533Z,17.10
2019-02-27T08:03:24.142Z,16.53
2019-02-27T08:05:53.702Z,17.53
2019-02-27T08:08:23.605Z,16.20
2019-02-27T08:10:53.948Z,16.50
2019-02-27T08:13:23.492Z,17.43
2019-02-27T08:15:53.071Z,17.07
2019-02-27T08:18:29.722Z,16.47
2019-02-27T08:20:54.519Z,16.43
2019-02-27T08:23:24.849Z,16.63
2019-02-27T08:25:54.448Z,17.30
2019-02-27T08:28:23.954Z,16.50
2019-02-27T08:30:53.676Z,16.80
2019-02-27T08:33:23.328Z,16.73
2019-02-27T08:35:52.924Z,15.63
2019-02-27T08:38:23.625Z,16.10
2019-02-27T08:40:57.410Z,15.10
2019-02-27T08:43:25.044Z,16.17
2019-02-27T08:45:54.701Z,14.97
2019-02-27T08:48:24.295Z,15.80
2019-02-27T08:50:53.947Z,15.97
2019-02-27T08:53:26.904Z,15.40
2019-02-27T08:55:54.759Z,15.97
2019-02-27T08:58:26.701Z,17.17
2019-02-27T09:00:55.687Z,15.53
2019-02-27T09:03:25.271Z,17.03
2019-02-27T09:05:54.877Z,16.70
2019-02-27T09:08:24.497Z,16.07
2019-02-27T09:10:54.134Z,16.17
2019-02-27T09:13:23.627Z,16.23
2019-02-27T09:15:53.801Z,15.80
2019-02-27T09:18:23.526Z,15.97
2019-02-27T09:20:54.218Z,15.17
2019-02-27T09:23:25.908Z,14.07
2019-02-27T09:25:57.398Z,14.27
2019-02-27T09:28:26.804Z,14.70
2019-02-27T09:30:56.412Z,14.40
2019-02-27T09:33:26.052Z,13.53
2019-02-27T09:35:55.690Z,13.27
2019-02-27T09:38:25.286Z,13.77
2019-02-27T09:40:54.952Z,13.27
2019-02-27T09:43:27.202Z,14.50
2019-02-27T09:45:55.957Z,14.00
2019-02-27T09:48:25.489Z,14.37
2019-02-27T09:50:56.928Z,14.97
2019-02-27T09:53:26.516Z,13.97
2019-02-27T09:55:56.161Z,14.47
2019-02-27T09:58:25.671Z,13.20
2019-02-27T10:01:00.705Z,14.17
2019-02-27T10:03:29.549Z,13.17
2019-02-27T10:05:59.192Z,13.10
2019-02-27T10:08:28.909Z,13.40
2019-02-27T10:10:58.476Z,12.57
2019-02-27T10:13:28.104Z,12.47
2019-02-27T10:16:00.228Z,12.37
2019-02-27T10:18:29.008Z,12.73
2019-02-27T10:20:58.531Z,12.93
2019-02-27T10:23:30.621Z,13.70
2019-02-27T10:25:59.541Z,13.80
2019-02-27T10:28:29.168Z,13.93
2019-02-27T10:30:58.892Z,14.07
2019-02-27T10:33:28.451Z,13.50
2019-02-27T10:36:02.958Z,13.80
2019-02-27T10:38:29.196Z,13.13
2019-02-27T10:40:58.870Z,13.63
2019-02-27T10:43:28.394Z,12.80
2019-02-27T10:45:58.073Z,11.67
2019-02-27T10:48:27.718Z,11.47
2019-02-27T10:50:57.216Z,11.43
2019-02-27T10:53:27.459Z,11.90
2019-02-27T10:55:57.552Z,11.20
2019-02-27T10:58:28.229Z,10.03
2019-02-27T11:00:58.047Z,11.03
2019-02-27T11:03:29.169Z,10.43
2019-02-27T11:05:58.832Z,10.13
2019-02-27T11:08:29.621Z,10.37
2019-02-27T11:10:59.294Z,10.93
2019-02-27T11:13:29.063Z,10.93
2019-02-27T11:15:58.722Z,10.77
2019-02-27T11:18:28.357Z,10.00
2019-02-27T11:20:59.156Z,10.60
2019-02-27T11:23:28.762Z,10.63
2019-02-27T11:25:58.367Z,10.17
2019-02-27T11:28:27.879Z,10.13
2019-02-27T11:30:57.479Z,10.33
2019-02-27T11:33:27.104Z,10.53
2019-02-27T11:35:56.700Z,10.70
2019-02-27T11:38:26.270Z,11.27
2019-02-27T11:40:55.954Z,10.03
2019-02-27T11:43:25.621Z,9.57
2019-02-27T11:45:57.677Z,10.30
2019-02-27T11:48:26.523Z,10.07
2019-02-27T11:50:56.176Z,10.27
2019-02-27T11:53:25.804Z,9.93
2019-02-27T11:55:55.471Z,9.53
2019-02-27T11:58:25.836Z,8.77
2019-02-27T12:00:55.438Z,8.97
2019-02-27T12:03:25.113Z,9.63
2019-02-27T12:05:54.834Z,9.07
2019-02-27T12:08:25.801Z,9.93
2019-02-27T12:10:55.644Z,9.90
2019-02-27T12:13:25.276Z,9.27
2019-02-27T12:15:54.965Z,8.87
2019-02-27T12:18:24.566Z,10.00
2019-02-27T12:20:54.350Z,8.70
2019-02-27T12:23:23.942Z,9.70
2019-02-27T12:25:53.466Z,9.83
2019-02-27T12:28:24.006Z,9.43
2019-02-27T12:30:53.632Z,9.47
2019-02-27T12:33:23.228Z,8.53
2019-02-27T12:35:52.927Z,8.57
2019-02-27T12:38:22.567Z,9.33
2019-02-27T12:40:52.124Z,8.83
2019-02-27T12:43:21.821Z,8.67
2019-02-27T12:45:52.399Z,8.73
2019-02-27T12:48:21.995Z,8.70
2019-02-27T12:50:51.648Z,9.17
2019-02-27T12:53:21.778Z,8.67
2019-02-27T12:55:51.565Z,8.53
2019-02-27T12:58:21.172Z,9.87
2019-02-27T13:00:50.851Z,8.53
2019-02-27T13:03:20.354Z,9.60
2019-02-27T13:05:50.023Z,9.13
2019-02-27T13:08:19.650Z,9.27
2019-02-27T13:10:49.323Z,9.03
2019-02-27T13:13:19.011Z,9.27
2019-02-27T13:15:49.504Z,9.33
2019-02-27T13:18:19.059Z,9.90
2019-02-27T13:20:48.584Z,9.30
2019-02-27T13:23:18.229Z,8.63
2019-02-27T13:25:47.850Z,9.67
2019-02-27T13:28:17.381Z,10.00
2019-02-27T13:30:46.999Z,9.93
2019-02-27T13:33:16.679Z,9.63
2019-02-27T13:35:46.362Z,9.30
2019-02-27T13:38:18.405Z,10.00
2019-02-27T13:40:47.233Z,9.27
2019-02-27T13:43:16.824Z,9.37
2019-02-27T13:45:47.570Z,9.60
2019-02-27T13:48:17.832Z,9.80
2019-02-27T13:50:47.418Z,9.37
2019-02-27T13:53:17.085Z,10.40
2019-02-27T13:55:48.318Z,9.73
2019-02-27T13:58:17.992Z,9.67
2019-02-27T14:00:47.607Z,9.70
2019-02-27T14:03:17.193Z,9.83
2019-02-27T14:05:46.886Z,9.70
2019-02-27T14:08:16.396Z,10.00
2019-02-27T14:10:45.999Z,9.67
2019-02-27T14:13:15.581Z,9.97
2019-02-27T14:15:45.280Z,9.30
2019-02-27T14:18:16.146Z,10.20
2019-02-27T14:20:46.430Z,9.93
2019-02-27T14:23:16.077Z,10.63
2019-02-27T14:25:45.838Z,9.87
2019-02-27T14:28:15.347Z,10.10
2019-02-27T14:30:52.968Z,9.93
2019-02-27T14:33:24.501Z,10.17
2019-02-27T14:35:54.066Z,9.13
2019-02-27T14:38:23.618Z,9.13
2019-02-27T14:40:53.253Z,9.50
2019-02-27T14:43:26.866Z,9.03
2019-02-27T14:45:54.175Z,9.27
2019-02-27T14:48:23.811Z,9.87
2019-02-27T14:50:53.381Z,9.20
2019-02-27T14:53:23.064Z,9.50
2019-02-27T14:55:52.647Z,8.93
2019-02-27T14:58:24.433Z,8.77
2019-02-27T15:00:53.503Z,8.80
2019-02-27T15:03:23.107Z,9.03
2019-02-27T15:05:52.717Z,9.23
2019-02-27T15:08:25.162Z,8.40
2019-02-27T15:10:53.466Z,9.47
2019-02-27T15:13:23.001Z,9.00
2019-02-27T15:15:52.631Z,8.93
2019-02-27T15:18:23.082Z,8.77
2019-02-27T15:20:52.942Z,9.27
2019-02-27T15:23:24.547Z,9.30
2019-02-27T15:25:53.770Z,9.30
2019-02-27T15:28:23.252Z,9.37
2019-02-27T15:30:52.932Z,9.43
2019-02-27T15:33:22.585Z,8.43
2019-02-27T15:35:55.271Z,9.63
2019-02-27T15:38:23.317Z,8.83
2019-02-27T15:40:52.965Z,9.07
2019-02-27T15:43:22.623Z,9.23
2019-02-27T15:45:52.302Z,9.03
2019-02-27T15:48:21.893Z,9.67
2019-02-27T15:50:54.157Z,10.10
2019-02-27T15:53:22.837Z,9.73
2019-02-27T15:55:52.616Z,9.37
2019-02-27T15:58:22.191Z,9.33
2019-02-27T16:00:52.643Z,9.27
2019-02-27T16:03:23.099Z,9.07
2019-02-27T16:05:52.692Z,8.93
2019-02-27T16:08:23.451Z,8.90
2019-02-27T16:10:55.157Z,8.63
2019-02-27T16:13:24.392Z,8.47
2019-02-27T16:15:53.937Z,8.20
2019-02-27T16:18:24.640Z,8.00
2019-02-27T16:20:54.194Z,7.57
2019-02-27T16:23:23.780Z,7.70
2019-02-27T16:25:55.887Z,7.63
2019-02-27T16:28:24.582Z,7.60
2019-02-27T16:30:54.119Z,7.60
2019-02-27T16:33:24.576Z,7.23
2019-02-27T16:35:54.380Z,7.20
2019-02-27T16:38:24.988Z,7.20
2019-02-27T16:40:54.660Z,7.30
2019-02-27T16:43:24.285Z,6.80
2019-02-27T16:45:53.869Z,6.83
2019-02-27T16:48:23.454Z,7.00
2019-02-27T16:50:53.168Z,7.40
2019-02-27T16:53:22.681Z,7.20
2019-02-27T16:55:52.203Z,7.43
2019-02-27T16:58:21.891Z,8.03
2019-02-27T17:00:54.333Z,6.90
2019-02-27T17:03:22.929Z,7.70
2019-02-27T17:05:52.619Z,7.93
2019-02-27T17:08:22.195Z,7.73
2019-02-27T17:10:52.546Z,7.30
2019-02-27T17:13:22.300Z,7.47
2019-02-27T17:15:52.071Z,7.30
2019-02-27T17:18:27.897Z,7.10
2019-02-27T17:20:52.815Z,6.93
2019-02-27T17:23:22.488Z,7.53
2019-02-27T17:25:52.005Z,7.10
2019-02-27T17:28:21.618Z,8.03
2019-02-27T17:30:51.240Z,7.43
2019-02-27T17:33:20.860Z,7.87
2019-02-27T17:35:50.470Z,6.83
2019-02-27T17:38:20.086Z,8.40
2019-02-27T17:40:49.662Z,7.70
2019-02-27T17:43:19.210Z,10.03
2019-02-27T17:45:48.787Z,10.37
2019-02-27T17:48:18.490Z,9.43
2019-02-27T17:50:47.974Z,8.97
2019-02-27T17:53:20.313Z,9.53
2019-02-27T17:55:48.741Z,8.73
2019-02-27T17:58:18.411Z,8.40
2019-02-27T18:00:51.066Z,8.10
2019-02-27T18:03:20.955Z,9.20
2019-02-27T18:05:50.667Z,8.33
2019-02-27T18:08:20.297Z,8.80
2019-02-27T18:10:49.797Z,8.03
2019-02-27T18:13:19.447Z,9.00
2019-02-27T18:15:49.183Z,8.37
2019-02-27T18:18:18.673Z,8.80
2019-02-27T18:20:48.297Z,9.77
2019-02-27T18:23:17.895Z,13.30
2019-02-27T18:25:47.456Z,14.67
2019-02-27T18:28:16.970Z,11.70
2019-02-27T18:30:46.556Z,12.30
2019-02-27T18:33:17.482Z,13.27
2019-02-27T18:35:47.216Z,14.67
2019-02-27T18:38:16.830Z,13.00
2019-02-27T18:40:46.431Z,13.27
2019-02-27T18:43:16.055Z,11.47
2019-02-27T18:45:48.148Z,11.27
2019-02-27T18:48:16.887Z,11.93
2019-02-27T18:50:46.525Z,12.27
2019-02-27T18:53:16.101Z,12.20
2019-02-27T18:55:45.603Z,10.63
2019-02-27T18:58:15.159Z,11.13
2019-02-27T19:00:44.818Z,10.27
2019-02-27T19:03:14.489Z,11.93
2019-02-27T19:05:44.075Z,11.20
2019-02-27T19:08:13.779Z,12.67
2019-02-27T19:10:43.448Z,12.37
2019-02-27T19:13:13.044Z,11.80
2019-02-27T19:15:45.688Z,11.07
2019-02-27T19:18:14.053Z,10.97
2019-02-27T19:20:44.919Z,12.53
2019-02-27T19:23:17.699Z,10.80
2019-02-27T19:25:46.089Z,10.43
2019-02-27T19:28:15.901Z,9.70
2019-02-27T19:30:45.604Z,8.90
2019-02-27T19:33:15.169Z,9.37
2019-02-27T19:35:44.875Z,9.27
2019-02-27T19:38:14.647Z,10.40
2019-02-27T19:40:44.257Z,9.73
2019-02-27T19:43:13.943Z,9.67
2019-02-27T19:45:43.792Z,8.90
2019-02-27T19:48:13.785Z,9.73
2019-02-27T19:50:46.241Z,9.97
2019-02-27T19:53:14.835Z,9.70
2019-02-27T19:55:44.594Z,9.30
2019-02-27T19:58:17.122Z,9.77
2019-02-27T20:00:48.565Z,10.10
2019-02-27T20:03:17.004Z,9.97
2019-02-27T20:05:46.618Z,9.80
2019-02-27T20:08:16.481Z,9.77
2019-02-27T20:10:46.882Z,9.53
2019-02-27T20:13:16.636Z,9.63
2019-02-27T20:15:46.521Z,9.93
2019-02-27T20:18:16.239Z,10.47
2019-02-27T20:20:46.078Z,9.90
2019-02-27T20:23:15.658Z,10.10
2019-02-27T20:25:45.307Z,10.70
2019-02-27T20:28:14.996Z,10.60
2019-02-27T20:30:44.939Z,11.33
2019-02-27T20:33:14.585Z,10.00
2019-02-27T20:35:44.115Z,11.07
2019-02-27T20:38:16.176Z,11.40
2019-02-27T20:40:45.209Z,10.70
2019-02-27T20:43:14.868Z,10.87
2019-02-27T20:45:44.516Z,10.37
2019-02-27T20:48:14.185Z,9.90
2019-02-27T20:50:56.427Z,10.83
2019-02-27T20:53:26.032Z,10.07
2019-02-27T20:55:55.749Z,10.40
2019-02-27T20:58:25.419Z,9.20
2019-02-27T21:00:55.095Z,10.47
2019-02-27T21:03:27.240Z,9.83
2019-02-27T21:05:55.915Z,9.97
2019-02-27T21:08:26.670Z,11.97
2019-02-27T21:10:56.485Z,10.73
2019-02-27T21:13:26.106Z,10.93
2019-02-27T21:15:55.693Z,11.07
2019-02-27T21:18:29.047Z,10.53
2019-02-27T21:20:57.625Z,10.53
2019-02-27T21:23:27.125Z,12.00
2019-02-27T21:25:56.812Z,11.57
2019-02-27T21:28:27.448Z,10.63
2019-02-27T21:30:57.023Z,10.20
2019-02-27T21:33:26.688Z,10.60
2019-02-27T21:35:56.283Z,9.10
2019-02-27T21:38:27.961Z,11.13
2019-02-27T21:40:57.657Z,9.73
2019-02-27T21:43:27.246Z,9.43
2019-02-27T21:45:57.013Z,10.30
2019-02-27T21:48:27.856Z,10.17
2019-02-27T21:50:57.644Z,9.57
2019-02-27T21:53:29.591Z,9.40
2019-02-27T21:55:58.692Z,10.07
2019-02-27T21:58:31.881Z,9.50
2019-02-27T22:00:59.659Z,9.83
2019-02-27T22:03:29.387Z,10.17
2019-02-27T22:05:58.933Z,10.80
2019-02-27T22:08:28.605Z,11.03
2019-02-27T22:10:58.993Z,10.93
2019-02-27T22:13:30.267Z,10.93
2019-02-27T22:15:59.832Z,10.40
2019-02-27T22:18:29.439Z,10.43
2019-02-27T22:20:59.691Z,10.80
2019-02-27T22:23:29.993Z,11.30
2019-02-27T22:26:03.114Z,11.10
2019-02-27T22:28:30.923Z,10.83
2019-02-27T22:31:06.281Z,11.00
2019-02-27T22:33:32.988Z,11.07
2019-02-27T22:36:02.658Z,11.23
2019-02-27T22:38:34.459Z,10.60
2019-02-27T22:41:03.534Z,10.87
2019-02-27T22:43:35.030Z,10.40
2019-02-27T22:46:04.406Z,11.40
2019-02-27T22:48:33.925Z,10.87
2019-02-27T22:51:03.492Z,11.47
2019-02-27T22:53:33.187Z,11.20
2019-02-27T22:56:02.756Z,11.53
2019-02-27T22:58:32.289Z,11.40
2019-02-27T23:01:09.804Z,10.67
2019-02-27T23:03:45.223Z,11.77
2019-02-27T23:06:14.987Z,11.87
2019-02-27T23:08:44.762Z,11.80
2019-02-27T23:11:14.397Z,11.30
2019-02-27T23:13:47.498Z,12.03
2019-02-27T23:16:17.481Z,11.97
2019-02-27T23:18:47.164Z,11.77
2019-02-27T23:21:16.815Z,12.50
2019-02-27T23:23:46.397Z,12.63
2019-02-27T23:26:19.810Z,12.07
2019-02-27T23:28:47.437Z,13.23
2019-02-27T23:31:22.187Z,12.40
2019-02-27T23:33:48.387Z,13.53
2019-02-27T23:36:18.059Z,13.43
2019-02-27T23:38:47.587Z,13.57
2019-02-27T23:41:17.134Z,12.80
2019-02-27T23:43:46.840Z,13.67
2019-02-27T23:46:18.601Z,13.50
2019-02-27T23:48:47.877Z,13.53
2019-02-27T23:51:17.512Z,13.70
2019-02-27T23:53:47.110Z,14.47
2019-02-27T23:56:20.207Z,14.33
2019-02-27T23:58:47.928Z,15.10
